sensor_id;sensor_type;location;lat;lon;timestamp;P1;durP1;ratioP1;P2;durP2;ratioP2
70967;SDS011;58629;48.808;8.820;2024-01-15T00:01:16;14.60;;;5.07;;
70967;SDS011;58629;48.808;8.820;2024-01-15T00:03:41;14.70;;;4.80;;
70967;SDS011;58629;48.808;8.820;2024-01-15T00:06:06;13.33;;;5.00;;
70967;SDS011;58629;48.808;8.820;2024-01-15T00:08:31;16.13;;;4.90;;
70967;SDS011;58629;48.808;8.820;2024-01-15T00:10:58;14.55;;;4.88;;
70967;SDS011;58629;48.808;8.820;2024-01-15T00:13:23;13.97;;;4.60;;
70967;SDS011;58629;48.808;8.820;2024-01-15T00:15:49;14.30;;;4.43;;
70967;SDS011;58629;48.808;8.820;2024-01-15T00:18:14;15.48;;;4.90;;
70967;SDS011;58629;48.808;8.820;2024-01-15T00:20:39;16.83;;;4.77;;
70967;SDS011;58629;48.808;8.820;2024-01-15T00:23:05;12.43;;;4.70;;
70967;SDS011;58629;48.808;8.820;2024-01-15T00:25:30;17.10;;;5.40;;
70967;SDS011;58629;48.808;8.820;2024-01-15T00:27:55;13.93;;;4.90;;
70967;SDS011;58629;48.808;8.820;2024-01-15T00:30:21;15.37;;;5.47;;
70967;SDS011;58629;48.808;8.820;2024-01-15T00:32:46;17.00;;;5.03;;
70967;SDS011;58629;48.808;8.820;2024-01-15T00:35:11;15.53;;;4.93;;
70967;SDS011;58629;48.808;8.820;2024-01-15T00:37:37;15.73;;;5.10;;
70967;SDS011;58629;48.808;8.820;2024-01-15T00:40:02;16.10;;;4.63;;
70967;SDS011;58629;48.808;8.820;2024-01-15T00:42:29;15.03;;;4.57;;
70967;SDS011;58629;48.808;8.820;2024-01-15T00:44:54;13.15;;;4.47;;
70967;SDS011;58629;48.808;8.820;2024-01-15T00:47:19;15.43;;;4.70;;
70967;SDS011;58629;48.808;8.820;2024-01-15T00:49:45;17.33;;;5.10;;
70967;SDS011;58629;48.808;8.820;2024-01-15T00:52:10;17.70;;;5.03;;
70967;SDS011;58629;48.808;8.820;2024-01-15T00:54:35;14.40;;;4.60;;
70967;SDS011;58629;48.808;8.820;2024-01-15T00:57:01;16.57;;;5.37;;
70967;SDS011;58629;48.808;8.820;2024-01-15T00:59:26;16.67;;;5.00;;
70967;SDS011;58629;48.808;8.820;2024-01-15T01:01:51;15.40;;;4.70;;
70967;SDS011;58629;48.808;8.820;2024-01-15T01:04:17;15.68;;;5.05;;
70967;SDS011;58629;48.808;8.820;2024-01-15T01:06:42;15.75;;;4.85;;
70967;SDS011;58629;48.808;8.820;2024-01-15T01:09:07;11.10;;;4.13;;
70967;SDS011;58629;48.808;8.820;2024-01-15T01:11:33;16.43;;;5.27;;
70967;SDS011;58629;48.808;8.820;2024-01-15T01:13:58;12.27;;;4.30;;
70967;SDS011;58629;48.808;8.820;2024-01-15T01:16:23;14.43;;;5.10;;
70967;SDS011;58629;48.808;8.820;2024-01-15T01:18:49;15.83;;;4.73;;
70967;SDS011;58629;48.808;8.820;2024-01-15T01:21:14;13.73;;;4.97;;
70967;SDS011;58629;48.808;8.820;2024-01-15T01:23:39;12.10;;;3.87;;
70967;SDS011;58629;48.808;8.820;2024-01-15T01:26:05;13.93;;;4.40;;
70967;SDS011;58629;48.808;8.820;2024-01-15T01:28:30;13.18;;;4.20;;
70967;SDS011;58629;48.808;8.820;2024-01-15T01:30:55;11.97;;;3.83;;
70967;SDS011;58629;48.808;8.820;2024-01-15T01:33:21;11.50;;;4.47;;
70967;SDS011;58629;48.808;8.820;2024-01-15T01:35:46;13.60;;;4.63;;
70967;SDS011;58629;48.808;8.820;2024-01-15T01:38:12;14.88;;;4.50;;
70967;SDS011;58629;48.808;8.820;2024-01-15T01:40:37;11.60;;;4.27;;
70967;SDS011;58629;48.808;8.820;2024-01-15T01:43:04;14.97;;;4.73;;
70967;SDS011;58629;48.808;8.820;2024-01-15T01:45:30;12.40;;;4.05;;
70967;SDS011;58629;48.808;8.820;2024-01-15T01:47:55;10.87;;;3.80;;
70967;SDS011;58629;48.808;8.820;2024-01-15T01:50:21;13.57;;;4.60;;
70967;SDS011;58629;48.808;8.820;2024-01-15T01:52:46;11.65;;;3.95;;
70967;SDS011;58629;48.808;8.820;2024-01-15T01:55:13;11.40;;;3.78;;
70967;SDS011;58629;48.808;8.820;2024-01-15T01:57:39;11.93;;;4.07;;
70967;SDS011;58629;48.808;8.820;2024-01-15T02:00:05;10.70;;;4.13;;
70967;SDS011;58629;48.808;8.820;2024-01-15T02:02:32;14.00;;;4.80;;
70967;SDS011;58629;48.808;8.820;2024-01-15T02:04:58;13.30;;;4.67;;
70967;SDS011;58629;48.808;8.820;2024-01-15T02:07:24;11.50;;;3.97;;
70967;SDS011;58629;48.808;8.820;2024-01-15T02:09:49;12.80;;;4.20;;
70967;SDS011;58629;48.808;8.820;2024-01-15T02:12:15;11.83;;;3.63;;
70967;SDS011;58629;48.808;8.820;2024-01-15T02:14:41;12.27;;;4.30;;
70967;SDS011;58629;48.808;8.820;2024-01-15T02:17:06;12.13;;;4.13;;
70967;SDS011;58629;48.808;8.820;2024-01-15T02:19:31;12.50;;;4.10;;
70967;SDS011;58629;48.808;8.820;2024-01-15T02:21:57;10.10;;;4.00;;
70967;SDS011;58629;48.808;8.820;2024-01-15T02:24:22;12.13;;;4.10;;
70967;SDS011;58629;48.808;8.820;2024-01-15T02:26:48;13.90;;;4.93;;
70967;SDS011;58629;48.808;8.820;2024-01-15T02:29:14;12.65;;;4.30;;
70967;SDS011;58629;48.808;8.820;2024-01-15T02:31:40;14.60;;;4.27;;
70967;SDS011;58629;48.808;8.820;2024-01-15T02:34:05;11.43;;;4.30;;
70967;SDS011;58629;48.808;8.820;2024-01-15T02:36:31;11.23;;;3.80;;
70967;SDS011;58629;48.808;8.820;2024-01-15T02:38:56;11.57;;;3.87;;
70967;SDS011;58629;48.808;8.820;2024-01-15T02:41:22;11.47;;;3.80;;
70967;SDS011;58629;48.808;8.820;2024-01-15T02:43:47;12.80;;;4.43;;
70967;SDS011;58629;48.808;8.820;2024-01-15T02:46:12;11.27;;;3.97;;
70967;SDS011;58629;48.808;8.820;2024-01-15T02:48:38;10.27;;;4.00;;
70967;SDS011;58629;48.808;8.820;2024-01-15T02:51:03;14.03;;;4.37;;
70967;SDS011;58629;48.808;8.820;2024-01-15T02:53:28;12.23;;;3.80;;
70967;SDS011;58629;48.808;8.820;2024-01-15T02:55:54;12.77;;;4.40;;
70967;SDS011;58629;48.808;8.820;2024-01-15T02:58:19;15.03;;;4.50;;
70967;SDS011;58629;48.808;8.820;2024-01-15T03:00:44;13.10;;;4.53;;
70967;SDS011;58629;48.808;8.820;2024-01-15T03:03:11;10.93;;;4.30;;
70967;SDS011;58629;48.808;8.820;2024-01-15T03:05:36;13.57;;;4.20;;
70967;SDS011;58629;48.808;8.820;2024-01-15T03:08:02;12.80;;;4.07;;
70967;SDS011;58629;48.808;8.820;2024-01-15T03:10:27;10.37;;;4.30;;
70967;SDS011;58629;48.808;8.820;2024-01-15T03:12:53;11.33;;;3.90;;
70967;SDS011;58629;48.808;8.820;2024-01-15T03:15:18;11.93;;;3.90;;
70967;SDS011;58629;48.808;8.820;2024-01-15T03:17:43;13.00;;;4.20;;
70967;SDS011;58629;48.808;8.820;2024-01-15T03:20:09;11.17;;;3.93;;
70967;SDS011;58629;48.808;8.820;2024-01-15T03:22:34;13.32;;;4.10;;
70967;SDS011;58629;48.808;8.820;2024-01-15T03:25:00;11.33;;;3.80;;
70967;SDS011;58629;48.808;8.820;2024-01-15T03:27:25;8.60;;;2.90;;
70967;SDS011;58629;48.808;8.820;2024-01-15T03:29:51;12.48;;;4.28;;
70967;SDS011;58629;48.808;8.820;2024-01-15T03:32:16;12.32;;;3.83;;
70967;SDS011;58629;48.808;8.820;2024-01-15T03:34:42;10.47;;;3.53;;
70967;SDS011;58629;48.808;8.820;2024-01-15T03:37:07;9.57;;;3.63;;
70967;SDS011;58629;48.808;8.820;2024-01-15T03:39:32;10.97;;;3.63;;
70967;SDS011;58629;48.808;8.820;2024-01-15T03:41:58;9.57;;;3.50;;
70967;SDS011;58629;48.808;8.820;2024-01-15T03:44:23;11.13;;;3.47;;
70967;SDS011;58629;48.808;8.820;2024-01-15T03:46:48;9.30;;;3.33;;
70967;SDS011;58629;48.808;8.820;2024-01-15T03:49:14;9.67;;;3.67;;
70967;SDS011;58629;48.808;8.820;2024-01-15T03:51:39;9.00;;;3.03;;
70967;SDS011;58629;48.808;8.820;2024-01-15T03:54:04;7.37;;;3.07;;
70967;SDS011;58629;48.808;8.820;2024-01-15T03:56:30;9.00;;;2.93;;
70967;SDS011;58629;48.808;8.820;2024-01-15T03:58:55;9.00;;;3.13;;
70967;SDS011;58629;48.808;8.820;2024-01-15T04:01:20;9.07;;;3.10;;
70967;SDS011;58629;48.808;8.820;2024-01-15T04:03:46;9.20;;;3.15;;
70967;SDS011;58629;48.808;8.820;2024-01-15T04:06:11;7.10;;;2.75;;
70967;SDS011;58629;48.808;8.820;2024-01-15T04:08:36;8.50;;;3.10;;
70967;SDS011;58629;48.808;8.820;2024-01-15T04:11:02;7.73;;;3.10;;
70967;SDS011;58629;48.808;8.820;2024-01-15T04:13:27;9.20;;;3.50;;
70967;SDS011;58629;48.808;8.820;2024-01-15T04:15:52;8.83;;;3.53;;
70967;SDS011;58629;48.808;8.820;2024-01-15T04:18:18;6.90;;;2.80;;
70967;SDS011;58629;48.808;8.820;2024-01-15T04:20:43;9.93;;;3.00;;
70967;SDS011;58629;48.808;8.820;2024-01-15T04:23:08;8.82;;;2.88;;
70967;SDS011;58629;48.808;8.820;2024-01-15T04:25:34;8.38;;;2.90;;
70967;SDS011;58629;48.808;8.820;2024-01-15T04:27:59;6.60;;;2.60;;
70967;SDS011;58629;48.808;8.820;2024-01-15T04:30:25;7.47;;;2.80;;
70967;SDS011;58629;48.808;8.820;2024-01-15T04:32:50;6.27;;;2.83;;
70967;SDS011;58629;48.808;8.820;2024-01-15T04:35:15;7.27;;;2.93;;
70967;SDS011;58629;48.808;8.820;2024-01-15T04:37:41;7.33;;;2.53;;
70967;SDS011;58629;48.808;8.820;2024-01-15T04:40:06;7.07;;;2.57;;
70967;SDS011;58629;48.808;8.820;2024-01-15T04:42:32;6.80;;;2.40;;
70967;SDS011;58629;48.808;8.820;2024-01-15T04:44:57;7.00;;;2.70;;
70967;SDS011;58629;48.808;8.820;2024-01-15T04:47:23;6.45;;;2.53;;
70967;SDS011;58629;48.808;8.820;2024-01-15T04:49:48;6.13;;;2.50;;
70967;SDS011;58629;48.808;8.820;2024-01-15T04:52:14;6.97;;;2.57;;
70967;SDS011;58629;48.808;8.820;2024-01-15T04:54:39;7.72;;;2.75;;
70967;SDS011;58629;48.808;8.820;2024-01-15T04:57:05;7.25;;;2.60;;
70967;SDS011;58629;48.808;8.820;2024-01-15T04:59:30;6.93;;;3.03;;
70967;SDS011;58629;48.808;8.820;2024-01-15T05:01:56;5.47;;;2.40;;
70967;SDS011;58629;48.808;8.820;2024-01-15T05:04:21;7.03;;;2.50;;
70967;SDS011;58629;48.808;8.820;2024-01-15T05:06:47;7.00;;;2.65;;
70967;SDS011;58629;48.808;8.820;2024-01-15T05:09:12;6.07;;;2.40;;
70967;SDS011;58629;48.808;8.820;2024-01-15T05:11:38;9.37;;;2.70;;
70967;SDS011;58629;48.808;8.820;2024-01-15T05:14:04;7.47;;;2.80;;
70967;SDS011;58629;48.808;8.820;2024-01-15T05:16:29;6.70;;;2.50;;
70967;SDS011;58629;48.808;8.820;2024-01-15T05:18:54;7.00;;;2.70;;
70967;SDS011;58629;48.808;8.820;2024-01-15T05:21:20;7.03;;;2.23;;
70967;SDS011;58629;48.808;8.820;2024-01-15T05:23:45;6.53;;;2.40;;
70967;SDS011;58629;48.808;8.820;2024-01-15T05:26:10;7.13;;;2.67;;
70967;SDS011;58629;48.808;8.820;2024-01-15T05:28:36;5.97;;;2.42;;
70967;SDS011;58629;48.808;8.820;2024-01-15T05:31:01;5.77;;;2.30;;
70967;SDS011;58629;48.808;8.820;2024-01-15T05:33:26;5.53;;;2.30;;
70967;SDS011;58629;48.808;8.820;2024-01-15T05:35:52;7.23;;;2.87;;
70967;SDS011;58629;48.808;8.820;2024-01-15T05:38:18;5.65;;;2.38;;
70967;SDS011;58629;48.808;8.820;2024-01-15T05:40:44;5.90;;;2.40;;
70967;SDS011;58629;48.808;8.820;2024-01-15T05:43:09;5.33;;;2.40;;
70967;SDS011;58629;48.808;8.820;2024-01-15T05:45:35;5.18;;;2.15;;
70967;SDS011;58629;48.808;8.820;2024-01-15T05:48:03;5.40;;;2.30;;
70967;SDS011;58629;48.808;8.820;2024-01-15T05:50:28;4.70;;;2.00;;
70967;SDS011;58629;48.808;8.820;2024-01-15T05:52:54;4.10;;;1.67;;
70967;SDS011;58629;48.808;8.820;2024-01-15T05:55:19;5.27;;;2.37;;
70967;SDS011;58629;48.808;8.820;2024-01-15T05:57:45;5.83;;;2.27;;
70967;SDS011;58629;48.808;8.820;2024-01-15T06:00:10;6.15;;;2.03;;
70967;SDS011;58629;48.808;8.820;2024-01-15T06:02:39;4.10;;;1.80;;
70967;SDS011;58629;48.808;8.820;2024-01-15T06:05:05;4.75;;;1.50;;
70967;SDS011;58629;48.808;8.820;2024-01-15T06:07:31;4.55;;;1.80;;
70967;SDS011;58629;48.808;8.820;2024-01-15T06:09:56;4.25;;;1.90;;
70967;SDS011;58629;48.808;8.820;2024-01-15T06:12:22;5.13;;;2.00;;
70967;SDS011;58629;48.808;8.820;2024-01-15T06:14:47;4.73;;;2.13;;
70967;SDS011;58629;48.808;8.820;2024-01-15T06:17:13;4.90;;;1.80;;
70967;SDS011;58629;48.808;8.820;2024-01-15T06:19:38;3.77;;;1.77;;
70967;SDS011;58629;48.808;8.820;2024-01-15T06:22:03;4.90;;;1.90;;
70967;SDS011;58629;48.808;8.820;2024-01-15T06:24:29;5.27;;;1.90;;
70967;SDS011;58629;48.808;8.820;2024-01-15T06:26:54;3.47;;;1.90;;
70967;SDS011;58629;48.808;8.820;2024-01-15T06:29:19;4.20;;;1.80;;
70967;SDS011;58629;48.808;8.820;2024-01-15T06:31:44;3.60;;;1.40;;
70967;SDS011;58629;48.808;8.820;2024-01-15T06:34:10;6.77;;;2.80;;
70967;SDS011;58629;48.808;8.820;2024-01-15T06:36:35;3.60;;;1.60;;
70967;SDS011;58629;48.808;8.820;2024-01-15T06:39:00;4.73;;;1.93;;
70967;SDS011;58629;48.808;8.820;2024-01-15T06:41:26;4.43;;;1.77;;
70967;SDS011;58629;48.808;8.820;2024-01-15T06:43:51;4.77;;;1.70;;
70967;SDS011;58629;48.808;8.820;2024-01-15T06:46:20;4.90;;;1.70;;
70967;SDS011;58629;48.808;8.820;2024-01-15T06:48:46;4.75;;;2.00;;
70967;SDS011;58629;48.808;8.820;2024-01-15T06:51:11;4.40;;;1.85;;
70967;SDS011;58629;48.808;8.820;2024-01-15T06:53:37;4.72;;;1.80;;
70967;SDS011;58629;48.808;8.820;2024-01-15T06:56:02;6.67;;;1.93;;
70967;SDS011;58629;48.808;8.820;2024-01-15T06:58:28;5.90;;;2.30;;
70967;SDS011;58629;48.808;8.820;2024-01-15T07:00:53;5.93;;;2.30;;
70967;SDS011;58629;48.808;8.820;2024-01-15T07:03:19;5.63;;;2.23;;
70967;SDS011;58629;48.808;8.820;2024-01-15T07:05:44;7.00;;;2.65;;
70967;SDS011;58629;48.808;8.820;2024-01-15T07:08:09;5.67;;;2.23;;
70967;SDS011;58629;48.808;8.820;2024-01-15T07:10:34;5.77;;;2.20;;
70967;SDS011;58629;48.808;8.820;2024-01-15T07:13:00;7.57;;;2.77;;
70967;SDS011;58629;48.808;8.820;2024-01-15T07:15:25;6.80;;;2.50;;
70967;SDS011;58629;48.808;8.820;2024-01-15T07:17:51;5.90;;;2.33;;
70967;SDS011;58629;48.808;8.820;2024-01-15T07:20:16;6.67;;;2.37;;
70967;SDS011;58629;48.808;8.820;2024-01-15T07:22:42;6.97;;;2.13;;
70967;SDS011;58629;48.808;8.820;2024-01-15T07:25:07;5.30;;;2.10;;
70967;SDS011;58629;48.808;8.820;2024-01-15T07:27:33;5.20;;;2.15;;
70967;SDS011;58629;48.808;8.820;2024-01-15T07:29:58;4.37;;;2.20;;
70967;SDS011;58629;48.808;8.820;2024-01-15T07:32:24;4.33;;;2.00;;
70967;SDS011;58629;48.808;8.820;2024-01-15T07:34:49;5.83;;;2.33;;
70967;SDS011;58629;48.808;8.820;2024-01-15T07:37:14;7.67;;;2.60;;
70967;SDS011;58629;48.808;8.820;2024-01-15T07:39:40;5.88;;;2.67;;
70967;SDS011;58629;48.808;8.820;2024-01-15T07:42:05;6.87;;;2.47;;
70967;SDS011;58629;48.808;8.820;2024-01-15T07:44:31;6.03;;;2.27;;
70967;SDS011;58629;48.808;8.820;2024-01-15T07:46:56;5.90;;;2.40;;
70967;SDS011;58629;48.808;8.820;2024-01-15T07:49:21;6.13;;;2.33;;
70967;SDS011;58629;48.808;8.820;2024-01-15T07:51:48;6.28;;;2.70;;
70967;SDS011;58629;48.808;8.820;2024-01-15T07:54:14;4.77;;;2.00;;
70967;SDS011;58629;48.808;8.820;2024-01-15T07:56:55;5.83;;;2.30;;
70967;SDS011;58629;48.808;8.820;2024-01-15T07:59:24;4.35;;;2.03;;
70967;SDS011;58629;48.808;8.820;2024-01-15T08:01:50;6.40;;;2.40;;
70967;SDS011;58629;48.808;8.820;2024-01-15T08:04:16;5.93;;;2.30;;
70967;SDS011;58629;48.808;8.820;2024-01-15T08:06:42;4.55;;;2.00;;
70967;SDS011;58629;48.808;8.820;2024-01-15T08:09:07;5.63;;;2.42;;
70967;SDS011;58629;48.808;8.820;2024-01-15T08:11:33;5.53;;;2.03;;
70967;SDS011;58629;48.808;8.820;2024-01-15T08:13:59;5.88;;;2.40;;
70967;SDS011;58629;48.808;8.820;2024-01-15T08:16:24;7.00;;;2.50;;
70967;SDS011;58629;48.808;8.820;2024-01-15T08:18:50;5.73;;;2.23;;
70967;SDS011;58629;48.808;8.820;2024-01-15T08:21:15;5.38;;;2.40;;
70967;SDS011;58629;48.808;8.820;2024-01-15T08:23:40;5.95;;;2.60;;
70967;SDS011;58629;48.808;8.820;2024-01-15T08:26:06;4.90;;;2.00;;
70967;SDS011;58629;48.808;8.820;2024-01-15T08:28:32;6.33;;;2.77;;
70967;SDS011;58629;48.808;8.820;2024-01-15T08:30:57;5.22;;;2.30;;
70967;SDS011;58629;48.808;8.820;2024-01-15T08:33:22;5.50;;;2.17;;
70967;SDS011;58629;48.808;8.820;2024-01-15T08:35:48;6.13;;;2.40;;
70967;SDS011;58629;48.808;8.820;2024-01-15T08:38:13;5.77;;;2.10;;
70967;SDS011;58629;48.808;8.820;2024-01-15T08:40:38;4.73;;;1.97;;
70967;SDS011;58629;48.808;8.820;2024-01-15T08:43:04;5.23;;;2.10;;
70967;SDS011;58629;48.808;8.820;2024-01-15T08:45:31;5.78;;;2.25;;
70967;SDS011;58629;48.808;8.820;2024-01-15T08:47:57;5.80;;;2.20;;
70967;SDS011;58629;48.808;8.820;2024-01-15T08:50:22;5.27;;;2.00;;
70967;SDS011;58629;48.808;8.820;2024-01-15T08:52:47;6.37;;;2.20;;
70967;SDS011;58629;48.808;8.820;2024-01-15T08:55:13;4.83;;;1.77;;
70967;SDS011;58629;48.808;8.820;2024-01-15T08:57:38;6.57;;;2.13;;
70967;SDS011;58629;48.808;8.820;2024-01-15T09:00:04;5.13;;;2.03;;
70967;SDS011;58629;48.808;8.820;2024-01-15T09:02:33;4.93;;;2.03;;
70967;SDS011;58629;48.808;8.820;2024-01-15T09:05:00;4.97;;;1.98;;
70967;SDS011;58629;48.808;8.820;2024-01-15T09:07:25;5.37;;;2.07;;
70967;SDS011;58629;48.808;8.820;2024-01-15T09:09:51;3.88;;;1.60;;
70967;SDS011;58629;48.808;8.820;2024-01-15T09:12:17;3.95;;;1.67;;
70967;SDS011;58629;48.808;8.820;2024-01-15T09:14:43;4.93;;;2.00;;
70967;SDS011;58629;48.808;8.820;2024-01-15T09:17:09;5.45;;;2.00;;
70967;SDS011;58629;48.808;8.820;2024-01-15T09:19:34;4.10;;;1.80;;
70967;SDS011;58629;48.808;8.820;2024-01-15T09:22:00;5.20;;;1.90;;
70967;SDS011;58629;48.808;8.820;2024-01-15T09:24:25;3.63;;;1.80;;
70967;SDS011;58629;48.808;8.820;2024-01-15T09:26:51;4.97;;;2.15;;
70967;SDS011;58629;48.808;8.820;2024-01-15T09:29:16;5.90;;;2.30;;
70967;SDS011;58629;48.808;8.820;2024-01-15T09:31:41;7.10;;;2.30;;
70967;SDS011;58629;48.808;8.820;2024-01-15T09:34:07;5.40;;;2.37;;
70967;SDS011;58629;48.808;8.820;2024-01-15T09:36:32;4.13;;;1.90;;
70967;SDS011;58629;48.808;8.820;2024-01-15T09:38:57;4.37;;;1.90;;
70967;SDS011;58629;48.808;8.820;2024-01-15T09:41:23;5.95;;;2.63;;
70967;SDS011;58629;48.808;8.820;2024-01-15T09:43:48;6.72;;;2.40;;
70967;SDS011;58629;48.808;8.820;2024-01-15T09:46:14;5.78;;;2.33;;
70967;SDS011;58629;48.808;8.820;2024-01-15T09:48:41;5.43;;;2.03;;
70967;SDS011;58629;48.808;8.820;2024-01-15T09:51:07;4.72;;;1.85;;
70967;SDS011;58629;48.808;8.820;2024-01-15T09:53:33;6.03;;;2.23;;
70967;SDS011;58629;48.808;8.820;2024-01-15T09:56:01;5.65;;;2.10;;
70967;SDS011;58629;48.808;8.820;2024-01-15T09:58:26;4.97;;;2.10;;
70967;SDS011;58629;48.808;8.820;2024-01-15T10:00:54;5.07;;;2.20;;
70967;SDS011;58629;48.808;8.820;2024-01-15T10:03:20;4.53;;;1.75;;
70967;SDS011;58629;48.808;8.820;2024-01-15T10:05:46;4.57;;;1.63;;
70967;SDS011;58629;48.808;8.820;2024-01-15T10:08:11;3.97;;;1.88;;
70967;SDS011;58629;48.808;8.820;2024-01-15T10:10:37;4.43;;;1.93;;
70967;SDS011;58629;48.808;8.820;2024-01-15T10:13:03;4.35;;;1.83;;
70967;SDS011;58629;48.808;8.820;2024-01-15T10:15:30;3.83;;;1.83;;
70967;SDS011;58629;48.808;8.820;2024-01-15T10:18:01;5.38;;;2.40;;
70967;SDS011;58629;48.808;8.820;2024-01-15T10:20:27;3.85;;;1.80;;
70967;SDS011;58629;48.808;8.820;2024-01-15T10:22:52;5.10;;;1.90;;
70967;SDS011;58629;48.808;8.820;2024-01-15T10:25:18;5.10;;;1.97;;
70967;SDS011;58629;48.808;8.820;2024-01-15T10:27:58;4.03;;;1.70;;
70967;SDS011;58629;48.808;8.820;2024-01-15T10:30:31;4.68;;;1.60;;
70967;SDS011;58629;48.808;8.820;2024-01-15T10:32:58;4.07;;;2.03;;
70967;SDS011;58629;48.808;8.820;2024-01-15T10:35:26;11.45;;;4.53;;
70967;SDS011;58629;48.808;8.820;2024-01-15T10:37:59;6.28;;;3.10;;
70967;SDS011;58629;48.808;8.820;2024-01-15T10:40:25;3.97;;;1.70;;
70967;SDS011;58629;48.808;8.820;2024-01-15T10:42:50;3.67;;;1.97;;
70967;SDS011;58629;48.808;8.820;2024-01-15T10:45:16;4.05;;;1.80;;
70967;SDS011;58629;48.808;8.820;2024-01-15T10:47:42;4.30;;;1.63;;
70967;SDS011;58629;48.808;8.820;2024-01-15T10:50:08;4.53;;;1.85;;
70967;SDS011;58629;48.808;8.820;2024-01-15T10:52:35;4.18;;;1.95;;
70967;SDS011;58629;48.808;8.820;2024-01-15T10:55:05;4.97;;;1.90;;
70967;SDS011;58629;48.808;8.820;2024-01-15T10:57:32;5.03;;;2.30;;
70967;SDS011;58629;48.808;8.820;2024-01-15T10:59:58;4.68;;;2.30;;
70967;SDS011;58629;48.808;8.820;2024-01-15T11:02:24;3.57;;;1.70;;
70967;SDS011;58629;48.808;8.820;2024-01-15T11:04:50;5.28;;;2.38;;
70967;SDS011;58629;48.808;8.820;2024-01-15T11:07:16;3.80;;;1.90;;
70967;SDS011;58629;48.808;8.820;2024-01-15T11:09:43;5.68;;;2.80;;
70967;SDS011;58629;48.808;8.820;2024-01-15T11:12:12;4.67;;;2.20;;
70967;SDS011;58629;48.808;8.820;2024-01-15T11:14:48;6.10;;;2.42;;
70967;SDS011;58629;48.808;8.820;2024-01-15T11:17:15;7.22;;;4.03;;
70967;SDS011;58629;48.808;8.820;2024-01-15T11:24:54;4.90;;;2.10;;
70967;SDS011;58629;48.808;8.820;2024-01-15T11:27:19;5.20;;;2.25;;
70967;SDS011;58629;48.808;8.820;2024-01-15T11:30:07;5.75;;;2.28;;
70967;SDS011;58629;48.808;8.820;2024-01-15T11:32:34;5.20;;;2.23;;
70967;SDS011;58629;48.808;8.820;2024-01-15T11:35:01;5.35;;;1.98;;
70967;SDS011;58629;48.808;8.820;2024-01-15T11:37:28;4.95;;;2.10;;
70967;SDS011;58629;48.808;8.820;2024-01-15T11:39:56;6.32;;;2.38;;
70967;SDS011;58629;48.808;8.820;2024-01-15T11:42:28;3.90;;;1.73;;
70967;SDS011;58629;48.808;8.820;2024-01-15T11:44:54;3.55;;;1.70;;
70967;SDS011;58629;48.808;8.820;2024-01-15T11:47:27;3.63;;;1.53;;
70967;SDS011;58629;48.808;8.820;2024-01-15T11:50:17;3.13;;;1.50;;
70967;SDS011;58629;48.808;8.820;2024-01-15T11:52:43;3.70;;;1.60;;
70967;SDS011;58629;48.808;8.820;2024-01-15T11:55:27;3.72;;;1.35;;
70967;SDS011;58629;48.808;8.820;2024-01-15T11:57:58;3.13;;;1.33;;
70967;SDS011;58629;48.808;8.820;2024-01-15T12:00:26;2.53;;;1.20;;
70967;SDS011;58629;48.808;8.820;2024-01-15T12:02:51;3.20;;;1.43;;
70967;SDS011;58629;48.808;8.820;2024-01-15T12:05:17;2.20;;;1.00;;
70967;SDS011;58629;48.808;8.820;2024-01-15T12:07:46;4.43;;;2.40;;
70967;SDS011;58629;48.808;8.820;2024-01-15T12:10:16;2.65;;;1.30;;
70967;SDS011;58629;48.808;8.820;2024-01-15T12:15:15;2.63;;;1.20;;
70967;SDS011;58629;48.808;8.820;2024-01-15T12:17:41;3.38;;;1.17;;
70967;SDS011;58629;48.808;8.820;2024-01-15T12:20:06;2.80;;;0.97;;
70967;SDS011;58629;48.808;8.820;2024-01-15T12:22:32;3.22;;;1.25;;
70967;SDS011;58629;48.808;8.820;2024-01-15T12:24:58;3.57;;;1.50;;
70967;SDS011;58629;48.808;8.820;2024-01-15T12:27:23;2.90;;;1.20;;
70967;SDS011;58629;48.808;8.820;2024-01-15T12:29:49;2.30;;;0.95;;
70967;SDS011;58629;48.808;8.820;2024-01-15T12:32:15;2.40;;;1.17;;
70967;SDS011;58629;48.808;8.820;2024-01-15T12:34:40;3.13;;;1.27;;
70967;SDS011;58629;48.808;8.820;2024-01-15T12:37:06;2.38;;;1.08;;
70967;SDS011;58629;48.808;8.820;2024-01-15T12:39:33;2.63;;;0.70;;
70967;SDS011;58629;48.808;8.820;2024-01-15T12:42:00;2.13;;;0.90;;
70967;SDS011;58629;48.808;8.820;2024-01-15T12:44:26;1.40;;;0.60;;
70967;SDS011;58629;48.808;8.820;2024-01-15T12:46:51;1.70;;;0.70;;
70967;SDS011;58629;48.808;8.820;2024-01-15T12:49:17;2.43;;;0.90;;
70967;SDS011;58629;48.808;8.820;2024-01-15T12:51:42;1.30;;;0.73;;
70967;SDS011;58629;48.808;8.820;2024-01-15T12:54:08;2.00;;;0.80;;
70967;SDS011;58629;48.808;8.820;2024-01-15T12:56:33;2.73;;;0.90;;
70967;SDS011;58629;48.808;8.820;2024-01-15T12:58:58;1.37;;;0.70;;
70967;SDS011;58629;48.808;8.820;2024-01-15T13:01:24;1.87;;;0.93;;
70967;SDS011;58629;48.808;8.820;2024-01-15T13:03:49;1.43;;;0.70;;
70967;SDS011;58629;48.808;8.820;2024-01-15T13:06:15;1.97;;;0.90;;
70967;SDS011;58629;48.808;8.820;2024-01-15T13:08:40;2.22;;;1.00;;
70967;SDS011;58629;48.808;8.820;2024-01-15T13:11:06;2.83;;;1.20;;
70967;SDS011;58629;48.808;8.820;2024-01-15T13:13:31;2.30;;;1.00;;
70967;SDS011;58629;48.808;8.820;2024-01-15T13:15:59;2.53;;;1.00;;
70967;SDS011;58629;48.808;8.820;2024-01-15T13:18:25;2.28;;;1.20;;
70967;SDS011;58629;48.808;8.820;2024-01-15T13:20:50;2.67;;;1.53;;
70967;SDS011;58629;48.808;8.820;2024-01-15T13:23:16;3.23;;;1.20;;
70967;SDS011;58629;48.808;8.820;2024-01-15T13:25:41;3.60;;;1.40;;
70967;SDS011;58629;48.808;8.820;2024-01-15T13:28:07;3.95;;;1.58;;
70967;SDS011;58629;48.808;8.820;2024-01-15T13:30:33;2.42;;;1.48;;
70967;SDS011;58629;48.808;8.820;2024-01-15T13:32:58;3.50;;;1.50;;
70967;SDS011;58629;48.808;8.820;2024-01-15T13:35:28;3.85;;;1.70;;
70967;SDS011;58629;48.808;8.820;2024-01-15T13:37:54;3.67;;;1.50;;
70967;SDS011;58629;48.808;8.820;2024-01-15T13:40:19;3.70;;;1.83;;
70967;SDS011;58629;48.808;8.820;2024-01-15T13:42:47;2.83;;;1.60;;
70967;SDS011;58629;48.808;8.820;2024-01-15T13:45:13;4.10;;;2.00;;
70967;SDS011;58629;48.808;8.820;2024-01-15T13:47:39;4.10;;;2.00;;
70967;SDS011;58629;48.808;8.820;2024-01-15T13:50:06;4.13;;;1.85;;
70967;SDS011;58629;48.808;8.820;2024-01-15T13:52:32;5.00;;;2.40;;
70967;SDS011;58629;48.808;8.820;2024-01-15T13:54:57;5.03;;;2.20;;
70967;SDS011;58629;48.808;8.820;2024-01-15T13:57:22;5.78;;;2.60;;
70967;SDS011;58629;48.808;8.820;2024-01-15T13:59:48;5.33;;;2.60;;
70967;SDS011;58629;48.808;8.820;2024-01-15T14:02:14;6.13;;;2.60;;
70967;SDS011;58629;48.808;8.820;2024-01-15T14:04:40;6.38;;;2.67;;
70967;SDS011;58629;48.808;8.820;2024-01-15T14:07:06;5.10;;;2.53;;
70967;SDS011;58629;48.808;8.820;2024-01-15T14:09:31;4.57;;;2.30;;
70967;SDS011;58629;48.808;8.820;2024-01-15T14:11:57;5.37;;;2.50;;
70967;SDS011;58629;48.808;8.820;2024-01-15T14:14:22;5.43;;;2.70;;
70967;SDS011;58629;48.808;8.820;2024-01-15T14:16:48;5.20;;;2.60;;
70967;SDS011;58629;48.808;8.820;2024-01-15T14:19:13;4.97;;;2.72;;
70967;SDS011;58629;48.808;8.820;2024-01-15T14:21:40;6.38;;;2.95;;
70967;SDS011;58629;48.808;8.820;2024-01-15T14:24:05;7.00;;;3.30;;
70967;SDS011;58629;48.808;8.820;2024-01-15T14:26:31;6.53;;;3.10;;
70967;SDS011;58629;48.808;8.820;2024-01-15T14:28:56;8.33;;;3.33;;
70967;SDS011;58629;48.808;8.820;2024-01-15T14:31:23;7.00;;;3.58;;
70967;SDS011;58629;48.808;8.820;2024-01-15T14:33:51;7.90;;;3.58;;
70967;SDS011;58629;48.808;8.820;2024-01-15T14:36:16;8.07;;;3.70;;
70967;SDS011;58629;48.808;8.820;2024-01-15T14:38:42;8.32;;;3.50;;
70967;SDS011;58629;48.808;8.820;2024-01-15T14:41:07;8.43;;;3.87;;
70967;SDS011;58629;48.808;8.820;2024-01-15T14:43:32;8.10;;;4.10;;
70967;SDS011;58629;48.808;8.820;2024-01-15T14:45:58;8.80;;;4.00;;